^^
Saratoga-Weather Station Historical Data
Daily Summary for June 17, 2020 Units:  English    Metric   Both
Daily Weekly Monthly Yearly Custom
  High: Low: Average:
Temperature: 78.6 °F 62.8 °F 69.6 °F
Dew Point: 63.7 °F 56.5 °F 60.1 °F
Humidity: 95% 49% 74%
Wind Speed: 10.1mph 0mph 2mph
Wind Gust: 14mph - -
Wind- - WSW
Pressure: 29.9 in 29.8 in -
Precipitation: 0.24 in    
Historical Graphs
 
 
Tabular Data for June 17, 2020
Time Temperature Dew Point Pressure Wind Wind Speed Wind Gust Humidity Rainfall Rate (Hourly) solar
00:02 71.2 °F 61 °F 29.8 in West 0.9 mph 6 mph 70% 0 in 0 W/m2
00:07 71.2 °F 61.7 °F 29.8 in Calm   2 mph 72% 0 in 0 W/m2
00:12 71.1 °F 62.8 °F 29.8 in SW 2 mph 2 mph 75% 0 in 0 W/m2
00:17 70.5 °F 63.3 °F 29.8 in ENE 0.9 mph 2 mph 78% 0 in 0 W/m2
00:22 69.6 °F 62.8 °F 29.8 in East 0.9 mph 2 mph 79% 0.02 in 0 W/m2
00:27 68.9 °F 62.8 °F 29.8 in ESE 2 mph 4 mph 81% 0.02 in 0 W/m2
00:33 68.4 °F 63 °F 29.8 in Calm   2 mph 83% 0.03 in 0 W/m2
00:38 68.2 °F 63.1 °F 29.8 in Calm   2 mph 84% 0.06 in 0 W/m2
00:43 67.8 °F 63.1 °F 29.8 in NE 0.9 mph 3 mph 85% 0.07 in 0 W/m2
00:48 67.5 °F 63.5 °F 29.8 in Calm   2 mph 87% 0.09 in 0 W/m2
00:53 67.1 °F 63.5 °F 29.8 in SW 0.9 mph 3 mph 88% 0.13 in 0 W/m2
00:58 66.7 °F 63.7 °F 29.8 in SSE 0.9 mph 2 mph 90% 0.15 in 0 W/m2
01:03 66.4 °F 63.7 °F 29.8 in Calm   2 mph 91% 0.17 in 0 W/m2
01:08 66 °F 63.3 °F 29.8 in ENE 2 mph 2 mph 91% 0.19 in 0 W/m2
01:13 66 °F 63.7 °F 29.8 in Calm   1 mph 92% 0.19 in 0 W/m2
01:18 65.8 °F 63.5 °F 29.8 in Calm   1 mph 92% 0.19 in 0 W/m2
01:23 65.7 °F 63.3 °F 29.8 in Calm     92% 0.17 in 0 W/m2
01:28 65.7 °F 63.5 °F 29.8 in Calm     93% 0.17 in 0 W/m2
01:33 65.5 °F 63.3 °F 29.8 in Calm     93% 0.16 in 0 W/m2
01:38 65.5 °F 63.3 °F 29.8 in Calm   1 mph 93% 0.13 in 0 W/m2
01:43 65.1 °F 63 °F 29.8 in Calm     93% 0.12 in 0 W/m2
01:48 65.1 °F 63 °F 29.8 in Calm     93% 0.09 in 0 W/m2
01:53 65.1 °F 63 °F 29.8 in Calm     93% 0.06 in 0 W/m2
01:58 64.9 °F 62.8 °F 29.8 in Calm     93% 0.03 in 0 W/m2
02:03 64.9 °F 63.1 °F 29.8 in Calm     94% 0.02 in 0 W/m2
02:08 64.8 °F 63 °F 29.8 in Calm     94% 0.01 in 0 W/m2
02:13 64.8 °F 63 °F 29.8 in Calm     94% 0.01 in 0 W/m2
02:18 64.8 °F 63 °F 29.8 in Calm     94% 0.01 in 0 W/m2
02:23 64.6 °F 62.8 °F 29.8 in Calm     94% 0.01 in 0 W/m2
02:28 64.2 °F 62.4 °F 29.8 in Calm   1 mph 94% 0.01 in 0 W/m2
02:33 64.2 °F 62.4 °F 29.8 in Calm   2 mph 94% 0.01 in 0 W/m2
02:38 64 °F 62.2 °F 29.8 in Calm     94% 0.01 in 0 W/m2
02:43 64 °F 62.2 °F 29.8 in Calm   2 mph 94% 0.01 in 0 W/m2
02:48 64 °F 62.2 °F 29.8 in Calm     94% 0.01 in 0 W/m2
02:53 63.9 °F 62.1 °F 29.8 in Calm     94% 0.01 in 0 W/m2
02:58 63.7 °F 61.9 °F 29.8 in Calm     94% 0.01 in 0 W/m2
03:03 63.7 °F 62.2 °F 29.8 in Calm     95% 0 in 0 W/m2
03:08 63.3 °F 61.5 °F 29.8 in Calm   1 mph 94% 0 in 0 W/m2
03:14 63.3 °F 61.9 °F 29.8 in Calm     95% 0 in 0 W/m2
03:19 63.3 °F 61.9 °F 29.8 in WSW 0.9 mph 3 mph 95% 0 in 0 W/m2
03:24 63.5 °F 62.1 °F 29.8 in WNW 2 mph 3 mph 95% 0 in 0 W/m2
03:29 63.7 °F 62.2 °F 29.8 in West 2 mph 4 mph 95% 0 in 0 W/m2
03:34 63.9 °F 62.4 °F 29.8 in WNW 2 mph 5 mph 95% 0 in 0 W/m2
03:39 64 °F 62.6 °F 29.8 in West 0.9 mph 7 mph 95% 0 in 0 W/m2
03:44 64 °F 62.6 °F 29.8 in WNW 4 mph 10 mph 95% 0 in 0 W/m2
03:49 64 °F 62.6 °F 29.8 in West 2.9 mph 4 mph 95% 0 in 0 W/m2
03:54 64 °F 62.6 °F 29.8 in WNW 2.9 mph 7 mph 95% 0 in 0 W/m2
03:59 64 °F 62.6 °F 29.8 in WNW 4 mph 6 mph 95% 0 in 0 W/m2
04:04 64.2 °F 62.8 °F 29.8 in West 2 mph 3 mph 95% 0 in 0 W/m2
04:09 64.6 °F 62.8 °F 29.8 in WNW 0.9 mph 3 mph 94% 0 in 0 W/m2
04:14 64.6 °F 62.8 °F 29.8 in NW 2.9 mph 7 mph 94% 0 in 0 W/m2
04:19 64.8 °F 63 °F 29.8 in NW 4 mph 10 mph 94% 0 in 0 W/m2
04:24 64.8 °F 62.6 °F 29.8 in SW 4.9 mph 8 mph 93% 0 in 0 W/m2
04:29 64.8 °F 62.6 °F 29.8 in West 6 mph 8 mph 93% 0 in 0 W/m2
04:34 64.8 °F 62.6 °F 29.8 in West 8.1 mph 9 mph 93% 0.01 in 0 W/m2
04:39 64.6 °F 62.2 °F 29.8 in WNW 2 mph 4 mph 92% 0.04 in 0 W/m2
04:44 64.2 °F 61.9 °F 29.8 in West 2 mph 8 mph 92% 0.04 in 0 W/m2
04:49 64.2 °F 61.9 °F 29.8 in WNW 0.9 mph 2 mph 92% 0.04 in 0 W/m2
04:54 64.2 °F 62.2 °F 29.8 in WSW 0.9 mph 5 mph 93% 0.04 in 0 W/m2
04:59 64.2 °F 62.2 °F 29.8 in WSW 0.9 mph 3 mph 93% 0.04 in 0 W/m2
05:04 64 °F 62.1 °F 29.8 in West 0.9 mph 3 mph 93% 0.04 in 0 W/m2
05:09 64 °F 62.1 °F 29.8 in Calm   1 mph 93% 0.04 in 0 W/m2
05:14 64 °F 62.1 °F 29.8 in Calm   1 mph 93% 0.04 in 0 W/m2
05:19 63.9 °F 62.1 °F 29.8 in WNW 0.9 mph 1 mph 94% 0.04 in 0 W/m2
05:24 63.7 °F 61.7 °F 29.8 in SSE 0.9 mph 2 mph 93% 0.04 in 0 W/m2
05:29 63.7 °F 61.9 °F 29.8 in Calm   2 mph 94% 0.04 in 0 W/m2
05:34 63.5 °F 61.7 °F 29.8 in West 0.9 mph 3 mph 94% 0.02 in 0 W/m2
05:39 63.5 °F 61.7 °F 29.8 in WNW 2 mph 6 mph 94% 0 in 0 W/m2
05:44 63.5 °F 61.7 °F 29.8 in West 0.9 mph 2 mph 94% 0 in 0 W/m2
05:49 63.7 °F 61.9 °F 29.8 in Calm   4 mph 94% 0 in 0 W/m2
05:54 63.7 °F 61.9 °F 29.8 in SW 2 mph 2 mph 94% 0 in 0 W/m2
05:59 63.7 °F 61.9 °F 29.8 in SW 0.9 mph 1 mph 94% 0 in 0 W/m2
06:04 63.7 °F 61.9 °F 29.8 in Calm     94% 0 in 0 W/m2
06:09 63.3 °F 61.5 °F 29.8 in Calm   1 mph 94% 0 in 0 W/m2
06:14 63.1 °F 61.3 °F 29.8 in SE 0.9 mph 1 mph 94% 0 in 0 W/m2
06:19 63.1 °F 61.3 °F 29.8 in SE 0.9 mph 2 mph 94% 0 in 0 W/m2
06:24 63 °F 61.2 °F 29.8 in SW 0.9 mph 2 mph 94% 0 in 0 W/m2
06:29 63 °F 61.2 °F 29.8 in Calm     94% 0 in 0 W/m2
06:34 63 °F 61.2 °F 29.8 in SE 2.9 mph 4 mph 94% 0 in 0 W/m2
06:39 63 °F 61.2 °F 29.8 in SW 0.9 mph 2 mph 94% 0 in 0 W/m2
06:44 63.1 °F 61.3 °F 29.8 in West 0.9 mph 3 mph 94% 0 in 5 W/m2
06:50 63.1 °F 61.3 °F 29.8 in Calm   1 mph 94% 0 in 7 W/m2
06:55 63.1 °F 61.3 °F 29.8 in ESE 0.9 mph 3 mph 94% 0 in 7 W/m2
07:00 63.1 °F 61.3 °F 29.8 in Calm   2 mph 94% 0 in 7 W/m2
07:05 63.1 °F 61.3 °F 29.8 in East 2.9 mph 3 mph 94% 0 in 11 W/m2
07:10 63.1 °F 61.3 °F 29.8 in East 0.9 mph 2 mph 94% 0 in 14 W/m2
07:15 63 °F 61.2 °F 29.8 in East 3 mph 3 mph 94% 0 in 14 W/m2
07:20 63 °F 61.2 °F 29.8 in East 2.9 mph 3 mph 94% 0 in 16 W/m2
07:25 62.8 °F 61 °F 29.8 in WNW 0.9 mph 1 mph 94% 0 in 21 W/m2
07:30 63 °F 61 °F 29.8 in WNW 2.9 mph 3 mph 93% 0 in 28 W/m2
07:35 63 °F 61 °F 29.8 in NW 2.9 mph 5 mph 93% 0 in 32 W/m2
07:40 63.1 °F 61.2 °F 29.8 in West 2.9 mph 6 mph 93% 0 in 37 W/m2
07:45 63.1 °F 60.8 °F 29.8 in West 6.9 mph 7 mph 92% 0 in 37 W/m2
07:50 63.1 °F 60.8 °F 29.8 in SSW 0.9 mph 4 mph 92% 0 in 44 W/m2
07:55 63.1 °F 60.8 °F 29.8 in NW 2.9 mph 8 mph 92% 0 in 56 W/m2
08:00 63.3 °F 60.6 °F 29.8 in WNW 4.9 mph 7 mph 91% 0 in 72 W/m2
08:05 63.3 °F 60.6 °F 29.8 in WNW 0.9 mph 8 mph 91% 0 in 70 W/m2
08:10 63.5 °F 60.8 °F 29.8 in WNW 2 mph 3 mph 91% 0 in 93 W/m2
08:15 63.7 °F 61 °F 29.8 in West 2 mph 6 mph 91% 0 in 81 W/m2
08:20 63.7 °F 61 °F 29.8 in SW 2.9 mph 3 mph 91% 0 in 86 W/m2
08:25 63.7 °F 60.6 °F 29.8 in Calm   1 mph 90% 0 in 90 W/m2
08:30 63.9 °F 60.6 °F 29.8 in NNW 5 mph 5 mph 89% 0 in 93 W/m2
08:35 63.9 °F 60.6 °F 29.8 in West 0.9 mph 3 mph 89% 0 in 77 W/m2
08:40 63.9 °F 60.6 °F 29.8 in Calm   1 mph 89% 0 in 72 W/m2
08:45 63.9 °F 60.6 °F 29.8 in West 2.9 mph 3 mph 89% 0 in 81 W/m2
08:50 63.9 °F 60.6 °F 29.8 in WSW 4 mph 7 mph 89% 0 in 125 W/m2
08:55 63.9 °F 60.6 °F 29.8 in WSW 2 mph 4 mph 89% 0 in 248 W/m2
09:00 64 °F 60.4 °F 29.8 in West 0.9 mph 5 mph 88% 0 in 204 W/m2
09:05 64.2 °F 60.6 °F 29.8 in West 2.9 mph 6 mph 88% 0 in 178 W/m2
09:11 64.2 °F 60.6 °F 29.8 in West 2.9 mph 8 mph 88% 0 in 130 W/m2
09:16 64.2 °F 60.6 °F 29.8 in NNW 4.9 mph 7 mph 88% 0 in 246 W/m2
09:21 64.6 °F 60.6 °F 29.8 in West 6.9 mph 8 mph 87% 0 in 225 W/m2
09:26 64.8 °F 60.8 °F 29.8 in WSW 8.1 mph 8 mph 87% 0 in 323 W/m2
09:31 65.1 °F 61.2 °F 29.8 in West 2 mph 6 mph 87% 0 in 378 W/m2
09:36 65.8 °F 61.9 °F 29.8 in West 0.9 mph 2 mph 87% 0 in 125 W/m2
09:41 66 °F 61.3 °F 29.8 in West 2 mph 5 mph 85% 0 in 158 W/m2
09:46 66.6 °F 61.9 °F 29.8 in NNW 2.9 mph 7 mph 85% 0 in 373 W/m2
09:51 66.7 °F 61.7 °F 29.8 in NW 4.9 mph 7 mph 84% 0 in 330 W/m2
09:56 66.7 °F 61.7 °F 29.8 in WNW 4 mph 8 mph 84% 0 in 183 W/m2
10:01 66.7 °F 61.7 °F 29.8 in NW 4 mph 6 mph 84% 0 in 265 W/m2
10:06 66.7 °F 62.1 °F 29.8 in West 2 mph 8 mph 85% 0 in 434 W/m2
10:11 66.9 °F 61.9 °F 29.8 in NW 2 mph 7 mph 84% 0 in 548 W/m2
10:16 67.5 °F 62.4 °F 29.8 in WSW 6.9 mph 11 mph 84% 0 in 554 W/m2
10:21 67.8 °F 62.1 °F 29.8 in WNW 2 mph 5 mph 82% 0 in 461 W/m2
10:26 68.2 °F 62.1 °F 29.8 in West 2.9 mph 11 mph 81% 0 in 258 W/m2
10:31 68.4 °F 62.2 °F 29.8 in West 4 mph 7 mph 81% 0 in 348 W/m2
10:36 68.4 °F 61.9 °F 29.8 in NW 2 mph 6 mph 80% 0 in 239 W/m2
10:41 68.5 °F 62.1 °F 29.8 in SW 6 mph 6 mph 80% 0 in 237 W/m2
10:46 68.5 °F 61.7 °F 29.8 in NW 2 mph 3 mph 79% 0 in 455 W/m2
10:51 69.1 °F 61.5 °F 29.8 in West 4 mph 9 mph 77% 0 in 499 W/m2
10:56 69.3 °F 61.7 °F 29.8 in West 4 mph 8 mph 77% 0 in 406 W/m2
11:01 69.3 °F 61.3 °F 29.8 in WNW 6.9 mph 9 mph 76% 0 in 345 W/m2
11:06 69.4 °F 61.9 °F 29.8 in WNW 6 mph 6 mph 77% 0 in 385 W/m2
11:11 69.4 °F 61.2 °F 29.8 in WNW 4.9 mph 9 mph 75% 0 in 378 W/m2
11:16 69.6 °F 61.3 °F 29.8 in West 0.9 mph 4 mph 75% 0 in 376 W/m2
11:21 70 °F 61 °F 29.8 in West 10 mph 10 mph 73% 0 in 183 W/m2
11:26 69.8 °F 60.8 °F 29.8 in WNW 4 mph 7 mph 73% 0 in 248 W/m2
11:31 70.2 °F 60.3 °F 29.8 in WNW 4 mph 11 mph 71% 0 in 686 W/m2
11:36 70.5 °F 60.3 °F 29.8 in WNW 2.9 mph 14 mph 70% 0 in 649 W/m2
11:41 71.1 °F 61.2 °F 29.8 in NW 2.9 mph 8 mph 71% 0 in 823 W/m2
11:46 71.6 °F 60.8 °F 29.8 in West 4 mph 14 mph 69% 0 in 323 W/m2
11:51 72.3 °F 61.2 °F 29.8 in West 2 mph 6 mph 68% 0 in 733 W/m2
11:56 73 °F 61.9 °F 29.8 in SSE 0.9 mph 9 mph 68% 0 in 735 W/m2
12:01 73 °F 59.7 °F 29.8 in WSW 6 mph 6 mph 63% 0 in 744 W/m2
12:06 72.9 °F 59.5 °F 29.8 in West 2 mph 9 mph 63% 0 in 738 W/m2
12:11 72.9 °F 59 °F 29.8 in WSW 6 mph 12 mph 62% 0 in 744 W/m2
12:16 73 °F 59.7 °F 29.8 in WSW 4 mph 9 mph 63% 0 in 765 W/m2
12:21 73.4 °F 60.1 °F 29.8 in WNW 2.9 mph 12 mph 63% 0 in 673 W/m2
12:26 73.4 °F 60.1 °F 29.8 in West 8.1 mph 8 mph 63% 0 in 860 W/m2
12:31 73.6 °F 61.5 °F 29.8 in SW 4.9 mph 11 mph 66% 0 in 766 W/m2
12:36 73.8 °F 60.4 °F 29.8 in NW 4 mph 5 mph 63% 0 in 789 W/m2
12:41 73.9 °F 60.1 °F 29.8 in WNW 2 mph 5 mph 62% 0 in 793 W/m2
12:46 74.1 °F 60.3 °F 29.8 in WSW 0.9 mph 7 mph 62% 0 in 881 W/m2
12:51 73.9 °F 60.1 °F 29.8 in West 0.9 mph 3 mph 62% 0 in 863 W/m2
12:56 74.5 °F 60.1 °F 29.8 in NNW 4 mph 8 mph 61% 0 in 844 W/m2
13:01 75 °F 59.7 °F 29.8 in NW 4.9 mph 8 mph 59% 0 in 921 W/m2
13:06 75.4 °F 60.1 °F 29.8 in SSE 0.9 mph 5 mph 59% 0 in 874 W/m2
13:12 75.9 °F 60.1 °F 29.8 in South 0.9 mph 4 mph 58% 0 in 835 W/m2
13:17 76.1 °F 60.3 °F 29.8 in West 4 mph 11 mph 58% 0 in 907 W/m2
13:22 75.7 °F 59.9 °F 29.8 in West 2 mph 6 mph 58% 0 in 178 W/m2
13:27 75.6 °F 59.7 °F 29.8 in SW 2 mph 4 mph 58% 0 in 216 W/m2
13:32 75.4 °F 59.5 °F 29.8 in SE 0.9 mph 2 mph 58% 0 in 197 W/m2
13:37 75.4 °F 59.5 °F 29.8 in West 6 mph 6 mph 58% 0 in 139 W/m2
13:42 74.7 °F 58.8 °F 29.8 in NNW 0.9 mph 2 mph 58% 0 in 141 W/m2
13:47 74.7 °F 59.4 °F 29.8 in WNW 2 mph 3 mph 59% 0 in 972 W/m2
13:52 74.7 °F 58.8 °F 29.8 in ESE 2 mph 3 mph 58% 0 in 174 W/m2
13:57 74.8 °F 59 °F 29.8 in West 0.9 mph 3 mph 58% 0 in 241 W/m2
14:02 74.8 °F 59 °F 29.8 in WNW 2 mph 7 mph 58% 0 in 199 W/m2
14:07 74.8 °F 60.4 °F 29.8 in WNW 2 mph 2 mph 61% 0 in 243 W/m2
14:12 75.2 °F 59 °F 29.8 in NW 4 mph 7 mph 57% 0 in 983 W/m2
14:17 76.1 °F 60.3 °F 29.8 in NNW 0.9 mph 2 mph 58% 0 in 898 W/m2
14:22 76.6 °F 58.8 °F 29.8 in North 0.9 mph 2 mph 54% 0 in 176 W/m2
14:27 76.3 °F 59.9 °F 29.8 in ENE 0.9 mph 1 mph 57% 0 in 174 W/m2
14:32 75.9 °F 59.5 °F 29.8 in East 0.9 mph 3 mph 57% 0 in 144 W/m2
14:37 75.6 °F 58.3 °F 29.8 in ESE 0.9 mph 2 mph 55% 0 in 274 W/m2
14:42 75.7 °F 59.4 °F 29.8 in NW 2 mph 2 mph 57% 0 in 1011 W/m2
14:47 76.1 °F 58.3 °F 29.8 in West 2.9 mph 8 mph 54% 0 in 1004 W/m2
14:52 76.5 °F 58.6 °F 29.8 in WSW 0.9 mph 3 mph 54% 0 in 976 W/m2
14:57 76.5 °F 58.1 °F 29.8 in WNW 2 mph 8 mph 53% 0 in 171 W/m2
15:02 76.3 °F 57.9 °F 29.8 in SSE 0.9 mph 6 mph 53% 0 in 186 W/m2
15:07 76.1 °F 58.3 °F 29.8 in North 4 mph 8 mph 54% 0 in 260 W/m2
15:12 76.3 °F 58.5 °F 29.8 in WSW 2 mph 8 mph 54% 0 in 404 W/m2
15:17 76.6 °F 58.8 °F 29.8 in East 2.9 mph 5 mph 54% 0 in 881 W/m2
15:22 77.5 °F 59 °F 29.8 in West 2 mph 6 mph 53% 0 in 176 W/m2
15:27 77.4 °F 59.4 °F 29.8 in WSW 2 mph 3 mph 54% 0 in 255 W/m2
15:32 77.4 °F 58.3 °F 29.8 in NNE 2.9 mph 3 mph 52% 0 in 984 W/m2
15:37 77.7 °F 58.1 °F 29.8 in WNW 4 mph 7 mph 51% 0 in 856 W/m2
15:42 78.1 °F 58.5 °F 29.8 in SE 2.9 mph 7 mph 51% 0 in 826 W/m2
15:47 78.6 °F 58.5 °F 29.8 in West 2 mph 6 mph 50% 0 in 803 W/m2
15:52 78.3 °F 57.6 °F 29.8 in ENE 2.9 mph 6 mph 49% 0 in 174 W/m2
15:57 77.4 °F 57.7 °F 29.8 in WSW 4 mph 8 mph 51% 0 in 188 W/m2
16:02 77.5 °F 57.4 °F 29.8 in NW 0.9 mph 4 mph 50% 0 in 171 W/m2
16:07 77.5 °F 57.4 °F 29.8 in NE 2 mph 8 mph 50% 0 in 120 W/m2
16:12 77.4 °F 57.2 °F 29.8 in NW 4 mph 6 mph 50% 0 in 193 W/m2
16:17 77 °F 57.6 °F 29.8 in WNW 2 mph 6 mph 51% 0 in 229 W/m2
16:22 77.2 °F 58.3 °F 29.8 in WSW 0.9 mph 4 mph 52% 0 in 171 W/m2
16:27 77.2 °F 59.2 °F 29.8 in West 4 mph 4 mph 54% 0 in 174 W/m2
16:32 76.8 °F 57.9 °F 29.8 in WNW 4 mph 6 mph 52% 0 in 315 W/m2
16:37 77.5 °F 57.9 °F 29.8 in WNW 2.9 mph 6 mph 51% 0 in 856 W/m2
16:42 77.5 °F 57.4 °F 29.8 in East 0.9 mph 4 mph 50% 0 in 214 W/m2
16:47 77.5 °F 57.4 °F 29.8 in East 2 mph 8 mph 50% 0 in 172 W/m2
16:52 77.2 °F 57 °F 29.8 in WNW 0.9 mph 2 mph 50% 0 in 221 W/m2
16:57 77.2 °F 57 °F 29.8 in NNW 2 mph 2 mph 50% 0 in 169 W/m2
17:02 77 °F 57 °F 29.8 in Calm   9 mph 50% 0 in 114 W/m2
17:07 76.8 °F 59 °F 29.8 in West 10.1 mph 12 mph 54% 0 in 139 W/m2
17:12 75.2 °F 59.4 °F 29.8 in SW 2 mph 4 mph 58% 0 in 135 W/m2
17:17 74.7 °F 60.3 °F 29.8 in Calm   12 mph 61% 0 in 123 W/m2
17:22 74.3 °F 61.3 °F 29.8 in Calm   1 mph 64% 0 in 151 W/m2
17:27 74.3 °F 61.7 °F 29.8 in Calm     65% 0 in 139 W/m2
17:32 74.3 °F 63.1 °F 29.8 in NW 0.9 mph 1 mph 68% 0 in 142 W/m2
17:37 74.5 °F 59.7 °F 29.8 in Calm   1 mph 60% 0 in 158 W/m2
17:43 74.7 °F 60.8 °F 29.8 in Calm   1 mph 62% 0 in 132 W/m2
17:48 75 °F 59.7 °F 29.8 in Calm     59% 0 in 125 W/m2
17:53 75.4 °F 59 °F 29.8 in East 2.9 mph 3 mph 57% 0 in 125 W/m2
17:58 75.7 °F 59 °F 29.8 in East 0.9 mph 2 mph 56% 0 in 116 W/m2
18:03 75.9 °F 59.5 °F 29.8 in Calm   1 mph 57% 0 in 142 W/m2
18:08 76.3 °F 60.4 °F 29.8 in ESE 0.9 mph 6 mph 58% 0 in 151 W/m2
18:13 76.3 °F 59.9 °F 29.8 in NW 2 mph 3 mph 57% 0 in 258 W/m2
18:18 76.6 °F 58.3 °F 29.8 in Calm   1 mph 53% 0 in 287 W/m2
18:23 77 °F 61.2 °F 29.8 in Calm     58% 0 in 149 W/m2
18:28 77 °F 58.1 °F 29.8 in WNW 2 mph 4 mph 52% 0 in 264 W/m2
18:33 77.2 °F 58.3 °F 29.8 in West 4 mph 4 mph 52% 0 in 163 W/m2
18:38 77 °F 58.1 °F 29.8 in WNW 2.9 mph 8 mph 52% 0 in 167 W/m2
18:43 77 °F 57.6 °F 29.8 in NW 0.9 mph 7 mph 51% 0 in 183 W/m2
18:48 77.4 °F 58.3 °F 29.8 in West 2.9 mph 4 mph 52% 0 in 360 W/m2
18:53 77.7 °F 57 °F 29.8 in SW 4 mph 7 mph 49% 0 in 169 W/m2
18:58 77.7 °F 58.1 °F 29.8 in WNW 2 mph 7 mph 51% 0 in 341 W/m2
19:03 77.7 °F 57.6 °F 29.8 in West 2.9 mph 6 mph 50% 0 in 323 W/m2
19:08 77.2 °F 57 °F 29.8 in West 4 mph 8 mph 50% 0 in 95 W/m2
19:13 76.6 °F 56.7 °F 29.8 in WSW 2.9 mph 7 mph 50% 0 in 100 W/m2
19:18 76.3 °F 56.8 °F 29.8 in West 6 mph 8 mph 51% 0 in 56 W/m2
19:23 75.9 °F 57 °F 29.8 in NW 2 mph 3 mph 52% 0 in 109 W/m2
19:28 75.7 °F 56.8 °F 29.8 in WNW 2 mph 8 mph 52% 0 in 65 W/m2
19:33 75.6 °F 56.7 °F 29.8 in WNW 2 mph 4 mph 52% 0 in 62 W/m2
19:38 75.4 °F 56.5 °F 29.8 in WSW 2 mph 6 mph 52% 0 in 121 W/m2
19:43 75.2 °F 56.8 °F 29.8 in West 2 mph 4 mph 53% 0 in 84 W/m2
19:48 75 °F 57.2 °F 29.8 in WNW 2.9 mph 5 mph 54% 0 in 77 W/m2
19:53 75 °F 57.2 °F 29.8 in West 0.9 mph 2 mph 54% 0 in 67 W/m2
19:58 74.8 °F 57 °F 29.8 in West 2.9 mph 6 mph 54% 0 in 46 W/m2
20:03 74.7 °F 57.4 °F 29.8 in West 2 mph 3 mph 55% 0 in 40 W/m2
20:08 74.3 °F 57 °F 29.8 in West 2.9 mph 3 mph 55% 0 in 37 W/m2
20:13 73.9 °F 56.8 °F 29.8 in WNW 0.9 mph 3 mph 55% 0 in 30 W/m2
20:18 73.9 °F 57.2 °F 29.8 in West 2.9 mph 4 mph 56% 0 in 26 W/m2
20:23 73.8 °F 57 °F 29.8 in West 2.9 mph 5 mph 56% 0 in 18 W/m2
20:28 73.6 °F 57.4 °F 29.8 in Calm   2 mph 57% 0 in 19 W/m2
20:33 73.2 °F 57.6 °F 29.8 in West 0.9 mph 5 mph 58% 0 in 16 W/m2
20:38 72.9 °F 57.7 °F 29.8 in Calm   1 mph 59% 0 in 12 W/m2
20:43 72.5 °F 57.4 °F 29.8 in WNW 2 mph 4 mph 59% 0 in 7 W/m2
20:48 72.1 °F 56.5 °F 29.8 in NW 2 mph 4 mph 58% 0 in 5 W/m2
20:53 72.1 °F 57 °F 29.8 in WNW 2 mph 4 mph 59% 0 in 0 W/m2
20:58 71.8 °F 56.7 °F 29.8 in WNW 2 mph 3 mph 59% 0 in 0 W/m2
21:03 71.6 °F 57 °F 29.8 in Calm   2 mph 60% 0 in 0 W/m2
21:08 71.2 °F 56.7 °F 29.8 in West 2 mph 3 mph 60% 0 in 0 W/m2
21:13 71.1 °F 56.8 °F 29.8 in WSW 4 mph 6 mph 61% 0 in 0 W/m2
21:18 70.5 °F 56.5 °F 29.8 in West 2 mph 4 mph 61% 0 in 0 W/m2
21:23 70.3 °F 56.7 °F 29.8 in WNW 2 mph 4 mph 62% 0 in 0 W/m2
21:28 70.2 °F 56.5 °F 29.8 in West 4 mph 6 mph 62% 0 in 0 W/m2
21:33 70 °F 56.8 °F 29.8 in West 2.9 mph 4 mph 63% 0 in 0 W/m2
21:38 69.8 °F 57 °F 29.8 in WSW 0.9 mph 6 mph 64% 0 in 0 W/m2
21:43 69.6 °F 57.4 °F 29.8 in West 2 mph 3 mph 65% 0 in 0 W/m2
21:48 69.4 °F 57.2 °F 29.8 in West 2.9 mph 6 mph 65% 0 in 0 W/m2
21:53 69.4 °F 57.6 °F 29.8 in WNW 2 mph 2 mph 66% 0 in 0 W/m2
21:58 69.4 °F 57.6 °F 29.8 in West 2 mph 4 mph 66% 0 in 0 W/m2
22:03 69.3 °F 57.4 °F 29.8 in West 2 mph 4 mph 66% 0 in 0 W/m2
22:08 69.4 °F 57.6 °F 29.8 in WSW 2.9 mph 3 mph 66% 0 in 0 W/m2
22:13 69.4 °F 57.9 °F 29.8 in NW 0.9 mph 4 mph 67% 0 in 0 W/m2
22:19 69.3 °F 57.9 °F 29.8 in NW 2 mph 4 mph 67% 0 in 0 W/m2
22:24 69.3 °F 57.9 °F 29.9 in WSW 4 mph 4 mph 67% 0 in 0 W/m2
22:29 69.3 °F 57.9 °F 29.9 in WSW 2 mph 5 mph 67% 0 in 0 W/m2
22:34 69.1 °F 58.1 °F 29.9 in Calm   1 mph 68% 0 in 0 W/m2
22:39 69.1 °F 58.1 °F 29.9 in West 0.9 mph 2 mph 68% 0 in 0 W/m2
22:44 68.9 °F 57.9 °F 29.9 in West 2 mph 3 mph 68% 0 in 0 W/m2
22:49 68.7 °F 58.1 °F 29.9 in Calm   2 mph 69% 0 in 0 W/m2
22:54 68.5 °F 58.3 °F 29.9 in Calm   1 mph 70% 0 in 0 W/m2
22:59 68.5 °F 58.3 °F 29.9 in WNW 2 mph 2 mph 70% 0 in 0 W/m2
23:05 68.4 °F 58.6 °F 29.9 in Calm   1 mph 71% 0 in 0 W/m2
23:10 68 °F 58.6 °F 29.9 in Calm   2 mph 72% 0 in 0 W/m2
23:15 67.6 °F 58.6 °F 29.9 in Calm     73% 0 in 0 W/m2
23:20 67.3 °F 58.6 °F 29.9 in Calm     74% 0 in 0 W/m2
23:25 66.9 °F 58.8 °F 29.9 in Calm   1 mph 75% 0 in 0 W/m2
23:30 66.4 °F 58.3 °F 29.9 in WNW 0.9 mph 2 mph 75% 0 in 0 W/m2
23:35 66.4 °F 58.6 °F 29.9 in Calm     76% 0 in 0 W/m2
23:40 66 °F 58.6 °F 29.9 in Calm     77% 0 in 0 W/m2
23:45 65.7 °F 58.6 °F 29.9 in Calm     78% 0 in 0 W/m2
23:50 65.5 °F 58.5 °F 29.9 in NW 0.9 mph 2 mph 78% 0 in 0 W/m2
23:55 65.3 °F 58.3 °F 29.9 in WNW 0.9 mph 2 mph 78% 0 in 0 W/m2
Juneau County Weather
Compliments of Weather Underground - 4 mb